createdAt,value
2019-05-17T00:01:42.563Z,6.09
2019-05-17T00:04:19.507Z,6.08
2019-05-17T00:06:56.939Z,6.05
2019-05-17T00:09:30.022Z,6.00
2019-05-17T00:12:03.784Z,5.94
2019-05-17T00:14:36.758Z,5.92
2019-05-17T00:17:08.477Z,5.95
2019-05-17T00:19:41.959Z,5.91
2019-05-17T00:22:18.474Z,5.91
2019-05-17T00:24:52.843Z,5.94
2019-05-17T00:27:31.111Z,5.88
2019-05-17T00:30:03.748Z,5.85
2019-05-17T00:32:37.072Z,5.77
2019-05-17T00:35:11.656Z,5.76
2019-05-17T00:37:47.431Z,5.72
2019-05-17T00:40:26.970Z,5.69
2019-05-17T00:43:03.203Z,5.68
2019-05-17T00:45:37.729Z,5.62
2019-05-17T00:48:11.797Z,5.55
2019-05-17T00:50:52.468Z,5.55
2019-05-17T00:53:21.833Z,5.55
2019-05-17T00:55:57.322Z,5.51
2019-05-17T00:58:32.305Z,5.48
2019-05-17T01:01:08.218Z,5.47
2019-05-17T01:03:41.635Z,5.36
2019-05-17T01:06:16.786Z,5.32
2019-05-17T01:09:00.993Z,5.28
2019-05-17T01:11:29.114Z,5.18
2019-05-17T01:14:01.903Z,5.20
2019-05-17T01:16:40.261Z,5.26
2019-05-17T01:19:20.285Z,5.27
2019-05-17T01:21:52.788Z,5.23
2019-05-17T01:24:29.253Z,5.23
2019-05-17T01:27:03.452Z,5.17
2019-05-17T01:29:36.975Z,5.11
2019-05-17T01:32:10.548Z,5.11
2019-05-17T01:34:46.890Z,5.12
2019-05-17T01:37:20.457Z,5.11
2019-05-17T01:39:54.160Z,5.07
2019-05-17T01:42:27.309Z,5.01
2019-05-17T01:45:01.895Z,5.01
2019-05-17T01:47:36.811Z,5.01
2019-05-17T01:50:17.460Z,4.91
2019-05-17T01:52:51.721Z,4.87
2019-05-17T01:55:26.591Z,4.85
2019-05-17T01:58:00.320Z,4.83
2019-05-17T02:00:33.797Z,4.81
2019-05-17T02:03:07.676Z,4.76
2019-05-17T02:05:44.498Z,4.68
2019-05-17T02:08:21.975Z,4.63
2019-05-17T02:10:57.437Z,4.59
2019-05-17T02:13:33.723Z,4.65
2019-05-17T02:16:07.193Z,4.67
2019-05-17T02:18:40.574Z,4.64
2019-05-17T02:21:13.527Z,4.59
2019-05-17T02:23:46.981Z,4.48
2019-05-17T02:26:19.972Z,4.49
2019-05-17T02:28:53.711Z,4.53
2019-05-17T02:31:27.215Z,4.48
2019-05-17T02:34:02.795Z,4.42
2019-05-17T02:36:35.195Z,4.43
2019-05-17T02:39:13.128Z,4.41
2019-05-17T02:41:44.394Z,4.40
2019-05-17T02:44:15.832Z,4.42
2019-05-17T02:46:47.227Z,4.45
2019-05-17T02:49:18.159Z,4.44
2019-05-17T02:51:52.554Z,4.40
2019-05-17T02:54:23.595Z,4.39
2019-05-17T02:56:55.660Z,4.38
2019-05-17T02:59:43.332Z,4.40
2019-05-17T03:02:13.531Z,4.40
2019-05-17T03:04:44.898Z,4.38
2019-05-17T03:07:15.937Z,4.42
2019-05-17T03:09:47.194Z,4.40
2019-05-17T03:12:18.628Z,4.36
2019-05-17T03:14:52.646Z,4.19
2019-05-17T03:17:23.108Z,4.10
2019-05-17T03:19:53.917Z,4.28
2019-05-17T03:22:25.273Z,4.33
2019-05-17T03:24:56.857Z,4.27
2019-05-17T03:27:28.149Z,4.18
2019-05-17T03:30:07.583Z,3.98
2019-05-17T03:32:39.555Z,3.83
2019-05-17T03:35:16.539Z,3.70
2019-05-17T03:37:43.922Z,3.63
2019-05-17T03:40:35.074Z,3.57
2019-05-17T03:42:48.986Z,3.48
2019-05-17T03:45:22.863Z,3.42
2019-05-17T03:47:53.479Z,3.42
2019-05-17T03:50:25.570Z,3.50
2019-05-17T03:52:57.187Z,3.56
2019-05-17T03:55:28.251Z,3.50
2019-05-17T03:58:02.881Z,3.52
2019-05-17T04:00:35.423Z,3.63
2019-05-17T04:03:05.474Z,3.75
2019-05-17T04:05:43.026Z,3.83
2019-05-17T04:10:48.058Z,3.93
2019-05-17T04:13:22.727Z,4.01
2019-05-17T04:15:53.613Z,4.06
2019-05-17T04:18:26.192Z,4.11
2019-05-17T04:20:58.408Z,4.06
2019-05-17T04:23:33.910Z,4.06
2019-05-17T04:26:04.269Z,4.10
2019-05-17T04:28:35.999Z,4.11
2019-05-17T04:31:07.908Z,4.18
2019-05-17T04:33:42.613Z,4.33
2019-05-17T04:36:24.430Z,4.46
2019-05-17T04:38:56.028Z,4.64
2019-05-17T04:41:41.522Z,4.91
2019-05-17T04:44:06.034Z,5.22
2019-05-17T04:46:39.157Z,5.48
2019-05-17T04:49:24.235Z,5.91
2019-05-17T04:51:55.333Z,6.12
2019-05-17T04:54:26.960Z,6.36
2019-05-17T04:56:58.344Z,6.58
2019-05-17T04:59:33.900Z,6.85
2019-05-17T05:02:03.466Z,6.91
2019-05-17T05:04:38.506Z,7.02
2019-05-17T05:07:08.337Z,7.37
2019-05-17T05:09:42.991Z,7.48
2019-05-17T05:12:13.718Z,8.09
2019-05-17T05:14:45.338Z,8.80
2019-05-17T05:17:16.788Z,9.71
2019-05-17T05:19:48.459Z,10.83
2019-05-17T05:22:22.350Z,12.33
2019-05-17T05:24:54.589Z,12.72
2019-05-17T05:27:25.777Z,13.59
2019-05-17T05:29:56.737Z,14.80
2019-05-17T05:32:28.387Z,15.79
2019-05-17T05:34:59.013Z,16.57
2019-05-17T05:37:32.981Z,16.72
2019-05-17T05:40:03.037Z,17.27
2019-05-17T05:42:34.687Z,17.99
2019-05-17T05:45:05.413Z,17.43
2019-05-17T05:47:36.996Z,17.73
2019-05-17T05:50:08.336Z,18.08
2019-05-17T05:52:42.402Z,18.21
2019-05-17T05:55:13.705Z,17.85
2019-05-17T05:57:44.595Z,17.76
2019-05-17T06:00:16.708Z,18.19
2019-05-17T06:02:48.179Z,17.45
2019-05-17T06:05:21.789Z,16.97
2019-05-17T06:07:52.829Z,18.02
2019-05-17T06:10:23.549Z,18.89
2019-05-17T06:12:54.609Z,19.46
2019-05-17T06:15:25.198Z,17.51
2019-05-17T06:17:56.066Z,19.65
2019-05-17T06:20:27.881Z,18.48
2019-05-17T06:22:59.174Z,18.40
2019-05-17T06:25:33.776Z,19.85
2019-05-17T06:28:03.348Z,19.77
2019-05-17T06:30:34.705Z,20.07
2019-05-17T06:33:05.678Z,19.97
2019-05-17T06:35:39.235Z,19.46
2019-05-17T06:38:12.096Z,17.29
2019-05-17T06:40:43.021Z,16.67
2019-05-17T06:43:14.337Z,16.06
2019-05-17T06:45:52.034Z,17.15
2019-05-17T06:48:22.732Z,18.67
2019-05-17T06:50:53.687Z,20.36
2019-05-17T06:53:25.601Z,21.06
2019-05-17T06:55:56.602Z,21.31
2019-05-17T06:58:28.467Z,22.30
2019-05-17T07:01:00.009Z,19.86
2019-05-17T07:03:31.107Z,19.45
2019-05-17T07:06:03.752Z,21.47
2019-05-17T07:08:35.330Z,21.45
2019-05-17T07:11:06.953Z,18.54
2019-05-17T07:13:39.557Z,19.91
2019-05-17T07:16:11.170Z,20.36
2019-05-17T07:18:49.373Z,22.52
2019-05-17T07:21:20.840Z,22.42
2019-05-17T07:23:52.441Z,22.07
2019-05-17T07:26:23.348Z,22.82
2019-05-17T07:28:54.926Z,23.09
2019-05-17T07:31:26.913Z,21.79
2019-05-17T07:33:59.825Z,19.76
2019-05-17T07:36:31.638Z,20.97
2019-05-17T07:39:03.891Z,21.05
2019-05-17T07:41:35.605Z,21.26
2019-05-17T07:44:09.772Z,20.36
2019-05-17T07:46:40.402Z,19.49
2019-05-17T07:49:11.398Z,19.43
2019-05-17T07:51:43.062Z,17.72
2019-05-17T07:54:13.986Z,16.26
2019-05-17T07:56:45.536Z,17.73
2019-05-17T07:59:16.902Z,18.87
2019-05-17T08:01:50.319Z,18.77
2019-05-17T08:04:21.334Z,18.61
2019-05-17T08:06:52.676Z,20.24
2019-05-17T08:09:24.141Z,19.85
2019-05-17T08:11:55.399Z,22.51
2019-05-17T08:14:30.218Z,22.43
2019-05-17T08:16:59.945Z,22.73
2019-05-17T08:19:30.954Z,22.07
2019-05-17T08:22:02.546Z,19.87
2019-05-17T08:24:34.137Z,20.53
2019-05-17T08:27:05.312Z,22.06
2019-05-17T08:29:37.347Z,23.44
2019-05-17T08:32:09.585Z,19.82
2019-05-17T08:34:41.679Z,21.17
2019-05-17T08:37:13.412Z,21.89
2019-05-17T08:39:44.685Z,23.18
2019-05-17T08:42:15.948Z,22.03
2019-05-17T08:44:49.672Z,23.41
2019-05-17T08:47:20.857Z,23.63
2019-05-17T08:49:52.823Z,22.46
2019-05-17T08:52:24.925Z,25.25
2019-05-17T08:54:55.858Z,20.85
2019-05-17T08:57:26.650Z,21.74
2019-05-17T09:00:00.510Z,23.46
2019-05-17T09:02:30.487Z,21.82
2019-05-17T09:05:01.157Z,22.72
2019-05-17T09:07:33.123Z,22.01
2019-05-17T09:10:06.006Z,23.76
2019-05-17T09:12:37.315Z,21.93
2019-05-17T09:15:10.060Z,20.68
2019-05-17T09:17:41.282Z,21.53
2019-05-17T09:20:12.624Z,23.27
2019-05-17T09:22:44.082Z,23.24
2019-05-17T09:25:19.048Z,22.12
2019-05-17T09:28:00.757Z,21.17
2019-05-17T09:30:31.944Z,22.64
2019-05-17T09:33:03.563Z,23.49
2019-05-17T09:35:35.355Z,24.20
2019-05-17T09:38:06.983Z,23.32
2019-05-17T09:40:40.263Z,25.44
2019-05-17T09:43:10.924Z,27.03
2019-05-17T09:45:42.712Z,27.68
2019-05-17T09:48:13.743Z,24.55
2019-05-17T09:50:46.292Z,26.07
2019-05-17T09:53:19.960Z,24.07
2019-05-17T09:55:51.109Z,24.57
2019-05-17T09:58:22.121Z,22.72
2019-05-17T10:00:53.569Z,24.17
2019-05-17T10:03:24.864Z,25.73
2019-05-17T10:05:55.944Z,24.76
2019-05-17T10:08:26.943Z,25.17
2019-05-17T10:11:06.047Z,24.87
2019-05-17T10:13:31.577Z,26.13
2019-05-17T10:16:10.212Z,26.91
2019-05-17T10:18:41.905Z,27.55
2019-05-17T10:21:12.231Z,28.04
2019-05-17T10:23:43.859Z,29.90
2019-05-17T10:26:15.637Z,31.35
2019-05-17T10:28:46.564Z,29.62
2019-05-17T10:31:19.615Z,27.90
2019-05-17T10:33:51.206Z,27.98
2019-05-17T10:36:22.261Z,29.61
2019-05-17T10:38:53.569Z,29.37
2019-05-17T10:41:24.229Z,28.28
2019-05-17T10:43:56.288Z,25.27
2019-05-17T10:46:29.828Z,25.02
2019-05-17T10:49:01.044Z,24.04
2019-05-17T10:51:32.633Z,24.04
2019-05-17T10:54:04.515Z,23.99
2019-05-17T10:56:36.246Z,25.63
2019-05-17T10:59:09.851Z,26.26
2019-05-17T11:01:40.697Z,29.18
2019-05-17T11:04:11.338Z,30.17
2019-05-17T11:06:42.625Z,29.59
2019-05-17T11:09:14.552Z,27.59
2019-05-17T11:11:46.260Z,26.87
2019-05-17T11:14:17.261Z,29.88
2019-05-17T11:16:48.584Z,29.08
2019-05-17T11:19:20.181Z,25.36
2019-05-17T11:21:51.856Z,25.53
2019-05-17T11:24:23.199Z,24.35
2019-05-17T11:26:54.435Z,24.36
2019-05-17T11:29:25.355Z,25.79
2019-05-17T11:31:57.056Z,25.39
2019-05-17T11:34:29.099Z,27.01
2019-05-17T11:37:00.585Z,27.47
2019-05-17T11:39:32.463Z,30.61
2019-05-17T11:42:04.516Z,28.52
2019-05-17T11:44:36.507Z,28.05
2019-05-17T11:47:07.460Z,28.95
2019-05-17T11:49:38.991Z,32.09
2019-05-17T11:52:10.675Z,31.23
2019-05-17T11:54:45.387Z,30.39
2019-05-17T11:57:16.660Z,30.44
2019-05-17T11:59:48.286Z,31.63
2019-05-17T12:02:21.603Z,31.32
2019-05-17T12:04:53.246Z,29.36
2019-05-17T12:07:24.580Z,28.91
2019-05-17T12:09:55.967Z,31.24
2019-05-17T12:12:42.485Z,28.86
2019-05-17T12:15:14.111Z,30.66
2019-05-17T12:17:54.028Z,30.21
2019-05-17T12:20:25.219Z,27.66
2019-05-17T12:22:56.981Z,28.93
2019-05-17T12:25:28.247Z,28.61
2019-05-17T12:27:59.568Z,29.79
2019-05-17T12:30:30.565Z,28.32
2019-05-17T12:33:02.332Z,29.40
2019-05-17T12:35:33.079Z,28.59
2019-05-17T12:38:04.956Z,27.92
2019-05-17T12:40:36.720Z,28.26
2019-05-17T12:43:07.802Z,28.33
2019-05-17T12:45:38.493Z,27.74
2019-05-17T12:48:15.352Z,29.01
2019-05-17T12:50:46.907Z,32.53
2019-05-17T12:53:18.079Z,31.46
2019-05-17T12:55:49.322Z,28.10
2019-05-17T12:58:20.746Z,28.98
2019-05-17T13:00:52.492Z,28.40
2019-05-17T13:03:23.153Z,26.95
2019-05-17T13:05:54.018Z,26.23
2019-05-17T13:08:25.400Z,26.61
2019-05-17T13:10:56.569Z,29.92
2019-05-17T13:13:27.804Z,30.56
2019-05-17T13:16:17.312Z,31.53
2019-05-17T13:18:39.870Z,33.90
2019-05-17T13:21:10.568Z,30.58
2019-05-17T13:23:41.719Z,32.84
2019-05-17T13:26:13.282Z,32.11
2019-05-17T13:28:45.241Z,32.93
2019-05-17T13:31:16.708Z,33.58
2019-05-17T13:33:50.043Z,35.48
2019-05-17T13:36:22.131Z,35.82
2019-05-17T13:38:53.380Z,35.09
2019-05-17T13:41:24.616Z,34.91
2019-05-17T13:43:55.647Z,35.69
2019-05-17T13:46:33.325Z,32.10
2019-05-17T13:49:24.119Z,35.38
2019-05-17T13:52:04.942Z,36.38
2019-05-17T13:54:36.891Z,36.51
2019-05-17T13:57:11.162Z,35.37
2019-05-17T13:59:41.585Z,31.95
2019-05-17T14:02:13.215Z,34.30
2019-05-17T14:04:45.354Z,34.08
2019-05-17T14:07:19.612Z,35.97
2019-05-17T14:09:51.344Z,36.40
2019-05-17T14:12:22.923Z,33.31
2019-05-17T14:14:54.777Z,33.46
2019-05-17T14:17:26.353Z,33.81
2019-05-17T14:19:57.521Z,35.29
2019-05-17T14:22:28.902Z,33.48
2019-05-17T14:25:01.338Z,36.98
2019-05-17T14:27:32.587Z,37.88
2019-05-17T14:30:03.891Z,37.68
2019-05-17T14:32:36.239Z,33.95
2019-05-17T14:35:07.547Z,36.28
2019-05-17T14:37:39.873Z,35.62
2019-05-17T14:40:11.300Z,34.31
2019-05-17T14:42:43.122Z,35.31
2019-05-17T14:45:14.528Z,34.56
2019-05-17T14:47:45.965Z,36.64
2019-05-17T14:50:17.728Z,34.94
2019-05-17T14:52:51.321Z,34.16
2019-05-17T14:55:23.427Z,34.62
2019-05-17T14:57:54.712Z,31.68
2019-05-17T15:00:25.958Z,32.02
2019-05-17T15:02:57.882Z,34.35
2019-05-17T15:05:29.263Z,34.42
2019-05-17T15:08:00.603Z,33.25
2019-05-17T15:10:32.049Z,32.51
2019-05-17T15:13:02.811Z,31.44
2019-05-17T15:15:34.779Z,33.19
2019-05-17T15:18:09.271Z,30.29
2019-05-17T15:20:39.193Z,30.39
2019-05-17T15:23:15.148Z,33.48
2019-05-17T15:25:47.391Z,34.50
2019-05-17T15:28:19.570Z,34.65
2019-05-17T15:30:51.092Z,34.05
2019-05-17T15:33:24.469Z,35.26
2019-05-17T15:35:56.222Z,35.41
2019-05-17T15:38:27.324Z,35.84
2019-05-17T15:41:09.907Z,34.42
2019-05-17T15:43:42.907Z,34.02
2019-05-17T15:46:14.486Z,33.33
2019-05-17T15:48:45.466Z,33.20
2019-05-17T15:51:17.023Z,34.04
2019-05-17T15:53:48.462Z,34.89
2019-05-17T15:56:48.093Z,34.11
2019-05-17T15:59:20.034Z,35.68
2019-05-17T16:01:51.786Z,33.72
2019-05-17T16:04:23.291Z,36.52
2019-05-17T16:06:54.687Z,35.93
2019-05-17T16:09:26.182Z,35.28
2019-05-17T16:11:58.004Z,33.98
2019-05-17T16:14:29.649Z,28.91
2019-05-17T16:17:00.702Z,28.24
2019-05-17T16:19:32.058Z,29.66
2019-05-17T16:22:03.394Z,29.27
2019-05-17T16:24:35.517Z,31.19
2019-05-17T16:27:16.433Z,31.45
2019-05-17T16:29:47.668Z,30.71
2019-05-17T16:32:19.729Z,30.13
2019-05-17T16:34:51.055Z,28.11
2019-05-17T16:37:22.846Z,27.75
2019-05-17T16:39:54.528Z,26.65
2019-05-17T16:42:46.361Z,27.19
2019-05-17T16:45:19.850Z,28.78
2019-05-17T16:47:51.698Z,30.33
2019-05-17T16:50:22.621Z,30.15
2019-05-17T16:53:05.611Z,29.41
2019-05-17T16:55:59.470Z,30.68
2019-05-17T16:58:30.897Z,28.91
2019-05-17T17:01:03.556Z,28.41
2019-05-17T17:03:43.688Z,27.72
2019-05-17T17:06:10.319Z,26.97
2019-05-17T17:08:41.025Z,25.43
2019-05-17T17:11:11.926Z,24.75
2019-05-17T17:13:43.467Z,24.17
2019-05-17T17:16:14.793Z,23.65
2019-05-17T17:18:54.150Z,23.42
2019-05-17T17:21:25.605Z,22.72
2019-05-17T17:23:57.260Z,22.33
2019-05-17T17:26:29.247Z,22.22
2019-05-17T17:28:59.993Z,22.32
2019-05-17T17:31:31.612Z,22.29
2019-05-17T17:34:03.274Z,22.10
2019-05-17T17:36:34.287Z,22.14
2019-05-17T17:39:06.792Z,21.34
2019-05-17T17:41:37.504Z,21.09
2019-05-17T17:44:08.919Z,20.63
2019-05-17T17:46:39.560Z,20.47
2019-05-17T17:49:11.500Z,20.55
2019-05-17T17:51:42.539Z,20.52
2019-05-17T17:54:32.905Z,20.62
2019-05-17T17:57:04.910Z,20.34
2019-05-17T17:59:35.983Z,20.30
2019-05-17T18:02:07.410Z,20.29
2019-05-17T18:04:39.226Z,19.97
2019-05-17T18:07:10.564Z,19.93
2019-05-17T18:09:41.497Z,19.88
2019-05-17T18:12:12.833Z,19.82
2019-05-17T18:14:44.192Z,19.67
2019-05-17T18:17:15.892Z,19.50
2019-05-17T18:19:56.385Z,19.37
2019-05-17T18:22:27.100Z,19.20
2019-05-17T18:24:58.720Z,19.02
2019-05-17T18:27:30.657Z,18.69
2019-05-17T18:30:01.685Z,18.52
2019-05-17T18:32:32.980Z,18.40
2019-05-17T18:35:03.691Z,18.27
2019-05-17T18:37:52.254Z,18.22
2019-05-17T18:40:24.197Z,18.11
2019-05-17T18:42:55.173Z,18.01
2019-05-17T18:45:27.051Z,17.90
2019-05-17T18:48:03.056Z,17.76
2019-05-17T18:50:34.789Z,17.65
2019-05-17T18:53:13.094Z,17.61
2019-05-17T18:55:47.910Z,17.48
2019-05-17T18:58:26.940Z,17.37
2019-05-17T19:00:59.074Z,17.26
2019-05-17T19:03:32.396Z,17.17
2019-05-17T19:06:04.845Z,17.14
2019-05-17T19:08:36.778Z,17.09
2019-05-17T19:11:08.375Z,16.97
2019-05-17T19:13:40.782Z,16.88
2019-05-17T19:16:12.121Z,16.78
2019-05-17T19:18:43.681Z,16.78
2019-05-17T19:21:15.005Z,16.70
2019-05-17T19:23:46.533Z,16.65
2019-05-17T19:26:17.855Z,16.58
2019-05-17T19:28:49.600Z,16.58
2019-05-17T19:31:22.264Z,16.63
2019-05-17T19:33:53.971Z,16.62
2019-05-17T19:36:25.310Z,16.56
2019-05-17T19:39:17.092Z,16.67
2019-05-17T19:41:48.461Z,16.67
2019-05-17T19:44:20.735Z,16.64
2019-05-17T19:46:52.082Z,16.61
2019-05-17T19:49:29.538Z,16.55
2019-05-17T19:52:16.881Z,16.49
2019-05-17T19:54:52.035Z,16.25
2019-05-17T19:57:24.027Z,16.11
2019-05-17T19:59:55.220Z,15.90
2019-05-17T20:02:30.425Z,15.79
2019-05-17T20:05:03.690Z,15.59
2019-05-17T20:07:38.853Z,15.47
2019-05-17T20:10:17.339Z,15.30
2019-05-17T20:12:48.974Z,15.19
2019-05-17T20:15:33.659Z,15.09
2019-05-17T20:18:00.093Z,14.98
2019-05-17T20:20:38.693Z,15.00
2019-05-17T20:23:17.531Z,14.86
2019-05-17T20:25:55.531Z,14.88
2019-05-17T20:28:36.730Z,14.98
2019-05-17T20:31:12.180Z,14.80
2019-05-17T20:33:55.427Z,14.84
2019-05-17T20:36:38.500Z,14.76
2019-05-17T20:39:18.871Z,14.71
2019-05-17T20:41:57.182Z,14.66
2019-05-17T20:44:27.300Z,14.66
2019-05-17T20:47:02.936Z,14.62
2019-05-17T20:49:33.769Z,14.76
2019-05-17T20:52:06.085Z,14.63
2019-05-17T20:54:37.852Z,14.59
2019-05-17T20:57:09.571Z,14.50
2019-05-17T20:59:51.912Z,14.50
2019-05-17T21:02:24.506Z,14.55
2019-05-17T21:04:59.960Z,14.54
2019-05-17T21:07:32.392Z,14.51
2019-05-17T21:10:06.054Z,14.52
2019-05-17T21:12:40.948Z,14.55
2019-05-17T21:15:13.187Z,14.46
2019-05-17T21:17:47.009Z,14.46
2019-05-17T21:20:42.245Z,14.38
2019-05-17T21:23:17.154Z,14.27
2019-05-17T21:25:48.217Z,14.17
2019-05-17T21:28:19.526Z,14.17
2019-05-17T21:30:50.733Z,14.18
2019-05-17T21:33:22.497Z,14.07
2019-05-17T21:35:54.276Z,14.06
2019-05-17T21:38:31.164Z,14.06
2019-05-17T21:41:02.593Z,14.02
2019-05-17T21:43:34.657Z,13.99
2019-05-17T21:46:09.871Z,13.93
2019-05-17T21:48:43.502Z,13.91
2019-05-17T21:51:17.185Z,14.02
2019-05-17T21:53:48.722Z,13.93
2019-05-17T21:56:24.746Z,13.91
2019-05-17T21:58:56.499Z,13.86
2019-05-17T22:01:36.378Z,13.77
2019-05-17T22:04:08.243Z,13.72
2019-05-17T22:06:49.175Z,13.66
2019-05-17T22:09:29.271Z,13.60
2019-05-17T22:12:10.111Z,13.51
2019-05-17T22:14:44.140Z,13.49
2019-05-17T22:17:24.062Z,13.51
2019-05-17T22:20:01.920Z,13.51
2019-05-17T22:22:42.352Z,13.45
2019-05-17T22:25:21.949Z,13.41
2019-05-17T22:27:59.631Z,13.36
2019-05-17T22:30:35.808Z,13.35
2019-05-17T22:33:14.776Z,13.36
2019-05-17T22:35:46.382Z,13.40
2019-05-17T22:38:17.498Z,13.37
2019-05-17T22:40:49.146Z,13.31
2019-05-17T22:43:20.233Z,13.19
2019-05-17T22:45:51.182Z,13.17
2019-05-17T22:48:23.021Z,13.11
2019-05-17T22:50:54.372Z,13.07
2019-05-17T22:53:25.437Z,13.02
2019-05-17T22:55:56.776Z,13.02
2019-05-17T22:58:28.454Z,13.02
2019-05-17T23:01:00.045Z,13.07
2019-05-17T23:03:31.928Z,13.03
2019-05-17T23:06:02.847Z,13.03
2019-05-17T23:08:34.316Z,13.03
2019-05-17T23:11:38.939Z,13.01
2019-05-17T23:14:10.674Z,13.00
2019-05-17T23:16:50.929Z,13.02
2019-05-17T23:19:15.144Z,13.02
2019-05-17T23:21:46.182Z,13.00
2019-05-17T23:24:17.622Z,12.98
2019-05-17T23:26:48.672Z,12.98
2019-05-17T23:29:20.586Z,12.94
2019-05-17T23:31:52.180Z,12.92
2019-05-17T23:34:23.844Z,12.89
2019-05-17T23:36:55.332Z,12.87
2019-05-17T23:39:47.969Z,12.89
2019-05-17T23:42:19.509Z,12.91
2019-05-17T23:44:50.969Z,12.94
2019-05-17T23:47:22.349Z,12.97
2019-05-17T23:49:53.074Z,12.97
2019-05-17T23:52:24.381Z,12.98
2019-05-17T23:54:55.353Z,12.98
2019-05-17T23:57:25.963Z,12.99
2019-05-17T23:59:57.726Z,13.01
